createdAt,value
2019-01-24T00:05:45.916Z,0.54
2019-01-24T00:11:40.883Z,0.49
2019-01-24T00:17:35.910Z,0.61
2019-01-24T00:23:30.887Z,0.68
2019-01-24T00:29:25.893Z,0.5
2019-01-24T00:35:20.893Z,0.53
2019-01-24T00:41:15.925Z,0.53
2019-01-24T00:47:10.952Z,0.53
2019-01-24T00:53:05.893Z,0.43
2019-01-24T00:59:00.924Z,0.56
2019-01-24T01:04:55.942Z,0.66
2019-01-24T01:10:50.968Z,0.64
2019-01-24T01:16:46.017Z,0.61
2019-01-24T01:22:40.981Z,0.63
2019-01-24T01:28:35.906Z,0.68
2019-01-24T01:34:36.066Z,0.53
2019-01-24T01:40:25.930Z,0.61
2019-01-24T01:46:20.954Z,0.7
2019-01-24T01:52:15.926Z,0.59
2019-01-24T01:58:10.935Z,0.52
2019-01-24T02:04:05.947Z,0.71
2019-01-24T02:10:00.950Z,0.61
2019-01-24T02:15:55.953Z,0.65
2019-01-24T02:21:50.996Z,0.57
2019-01-24T02:27:45.973Z,0.75
2019-01-24T02:33:40.969Z,0.62
2019-01-24T02:39:35.971Z,0.7
2019-01-24T02:45:30.964Z,0.66
2019-01-24T02:51:26.019Z,0.57
2019-01-24T02:57:20.977Z,0.63
2019-01-24T03:03:16.008Z,0.53
2019-01-24T03:09:10.988Z,0.46
2019-01-24T03:15:05.973Z,0.52
2019-01-24T03:21:00.995Z,0.46
2019-01-24T03:26:56.007Z,0.5
2019-01-24T03:32:51.002Z,0.64
2019-01-24T03:38:46.004Z,0.5
2019-01-24T03:44:40.996Z,0.5
2019-01-24T03:50:36.021Z,0.48
2019-01-24T03:56:31.037Z,0.67
2019-01-24T04:02:25.993Z,0.49
2019-01-24T04:08:21.024Z,0.55
2019-01-24T04:14:16.128Z,0.4
2019-01-24T04:20:11.030Z,0.4
2019-01-24T04:26:06.022Z,0.3
2019-01-24T04:32:01.049Z,0.38
2019-01-24T04:37:56.010Z,0.4
2019-01-24T04:43:51.025Z,0.45
2019-01-24T04:49:46.027Z,0.47
2019-01-24T04:55:41.030Z,0.64
2019-01-24T05:01:36.033Z,0.56
2019-01-24T05:07:31.063Z,0.49
2019-01-24T05:13:26.097Z,0.52
2019-01-24T05:19:21.060Z,0.7
2019-01-24T05:25:16.078Z,0.68
2019-01-24T05:31:11.042Z,0.77
2019-01-24T05:37:06.057Z,0.75
2019-01-24T05:43:01.148Z,0.64
2019-01-24T05:48:56.063Z,0.95
2019-01-24T05:54:51.078Z,0.84
2019-01-24T06:00:46.071Z,1.1
2019-01-24T06:06:41.177Z,0.83
2019-01-24T06:12:36.116Z,1.2
2019-01-24T06:18:31.117Z,0.99
2019-01-24T06:24:26.068Z,1.12
2019-01-24T06:30:21.091Z,1.25
2019-01-24T06:36:16.079Z,1.19
2019-01-24T06:42:11.105Z,1.52
2019-01-24T06:48:06.098Z,1.08
2019-01-24T06:54:01.128Z,1.34
2019-01-24T06:59:56.113Z,1.66
2019-01-24T07:05:55.306Z,2.04
2019-01-24T07:11:46.099Z,1.54
2019-01-24T07:17:41.126Z,1.81
2019-01-24T07:23:36.128Z,2.24
2019-01-24T07:29:31.117Z,2.27
2019-01-24T07:35:26.140Z,1.9
2019-01-24T07:41:21.126Z,2.73
2019-01-24T07:47:16.112Z,2.17
2019-01-24T07:53:11.129Z,2.47
2019-01-24T07:59:06.134Z,2.47
2019-01-24T08:05:01.146Z,2.76
2019-01-24T08:10:56.149Z,2.92
2019-01-24T08:16:51.173Z,2.45
2019-01-24T08:22:46.233Z,2.8
2019-01-24T08:28:41.210Z,3.02
2019-01-24T08:34:36.149Z,3.75
2019-01-24T08:40:31.192Z,3.52
2019-01-24T08:46:26.209Z,3.61
2019-01-24T08:52:21.191Z,3.52
2019-01-24T08:58:16.162Z,3.49
2019-01-24T09:04:11.186Z,3.41
2019-01-24T09:10:06.168Z,3.35
2019-01-24T09:16:01.175Z,3.61
2019-01-24T09:21:56.224Z,3.29
2019-01-24T09:27:51.178Z,3.59
2019-01-24T09:33:46.234Z,3.58
2019-01-24T09:39:41.198Z,3.6
2019-01-24T09:45:36.191Z,3.69
2019-01-24T09:51:31.207Z,2.89
2019-01-24T09:57:26.208Z,3.73
2019-01-24T10:03:21.198Z,3.63
2019-01-24T10:09:16.236Z,4.26
2019-01-24T10:15:11.200Z,3.5
2019-01-24T10:21:06.229Z,3.93
2019-01-24T10:27:01.254Z,3.97
2019-01-24T10:32:56.247Z,3.88
2019-01-24T10:38:51.230Z,4.02
2019-01-24T11:20:16.307Z,4.1
2019-01-24T11:20:16.329Z,4.77
2019-01-24T11:20:16.333Z,4.77
2019-01-24T11:20:16.349Z,4.77
2019-01-24T11:20:16.368Z,4.77
2019-01-24T11:20:16.389Z,4.77
2019-01-24T11:20:16.423Z,4.77
2019-01-24T11:26:11.250Z,5.94
2019-01-24T11:32:06.252Z,5.5
2019-01-24T11:38:01.262Z,4.83
2019-01-24T11:43:56.383Z,5.5
2019-01-24T11:49:51.327Z,5.14
2019-01-24T11:55:46.268Z,5.34
2019-01-24T12:01:41.292Z,5.96
2019-01-24T12:07:36.294Z,8.05
2019-01-24T12:13:31.264Z,5.25
2019-01-24T12:19:26.285Z,6.87
2019-01-24T12:25:21.334Z,5.88
2019-01-24T12:31:16.295Z,5.32
2019-01-24T12:37:11.562Z,5.74
2019-01-24T12:43:06.294Z,5.17
2019-01-24T12:49:01.308Z,5.52
2019-01-24T12:54:56.339Z,5.98
2019-01-24T13:00:51.317Z,5.65
2019-01-24T13:06:46.315Z,5.36
2019-01-24T13:12:41.311Z,5.43
2019-01-24T13:18:36.346Z,5.74
2019-01-24T13:24:31.372Z,5.47
2019-01-24T13:30:26.340Z,5.49
2019-01-24T13:36:21.330Z,6.74
2019-01-24T13:42:16.359Z,5.25
2019-01-24T13:48:11.362Z,5.71
2019-01-24T13:54:06.351Z,6.75
2019-01-24T14:00:01.372Z,5.88
2019-01-24T14:05:56.356Z,5.35
2019-01-24T14:11:51.344Z,5.34
2019-01-24T14:17:46.373Z,6.1
2019-01-24T14:23:41.351Z,6.13
2019-01-24T14:29:36.403Z,6.75
2019-01-24T14:35:31.375Z,5.78
2019-01-24T14:41:26.380Z,5.89
2019-01-24T14:47:21.375Z,13.03
2019-01-24T14:53:16.371Z,7.59
2019-01-24T14:59:11.384Z,7.29
2019-01-24T15:05:06.416Z,6.99
2019-01-24T15:11:01.409Z,6.47
2019-01-24T15:16:56.471Z,6.14
2019-01-24T15:22:51.417Z,7.13
2019-01-24T15:28:46.403Z,6.76
2019-01-24T15:34:41.394Z,6.35
2019-01-24T15:40:36.398Z,5.83
2019-01-24T15:46:31.388Z,6.6
2019-01-24T15:52:26.401Z,4.87
2019-01-24T15:58:21.410Z,5.03
2019-01-24T16:04:19.818Z,5.2
2019-01-24T16:10:11.441Z,4.65
2019-01-24T16:16:06.461Z,5.19
2019-01-24T16:22:01.402Z,3.97
2019-01-24T16:27:56.426Z,4.43
2019-01-24T16:33:51.419Z,5.19
2019-01-24T16:39:46.431Z,5.44
2019-01-24T16:45:41.435Z,5.17
2019-01-24T16:51:36.504Z,4.54
2019-01-24T16:57:31.464Z,21.78
2019-01-24T17:03:26.502Z,15.2
2019-01-24T17:09:21.497Z,6.79
2019-01-24T17:15:16.450Z,6.37
2019-01-24T17:21:11.460Z,7.68
2019-01-24T17:27:06.487Z,4.97
2019-01-24T17:33:01.473Z,4.66
2019-01-24T17:38:56.480Z,5.2
2019-01-24T17:44:51.501Z,4.5
2019-01-24T17:50:46.465Z,5.29
2019-01-24T17:56:41.485Z,4.44
2019-01-24T18:02:36.507Z,4.71
2019-01-24T18:08:31.634Z,5.78
2019-01-24T18:14:26.500Z,8.68
2019-01-24T18:20:21.476Z,5.68
2019-01-24T18:26:16.494Z,9.12
2019-01-24T18:32:11.483Z,5.9
2019-01-24T18:38:06.524Z,6.89
2019-01-24T18:44:01.496Z,7.15
2019-01-24T18:49:56.504Z,8.11
2019-01-24T18:55:51.506Z,7.58
2019-01-24T19:01:46.528Z,10.29
2019-01-24T19:07:41.504Z,12.23
2019-01-24T19:13:36.531Z,14.83
2019-01-24T19:19:31.502Z,14.38
2019-01-24T19:25:26.549Z,16.11
2019-01-24T19:31:21.514Z,14.9
2019-01-24T19:37:16.538Z,14.31
2019-01-24T19:43:11.531Z,13.31
2019-01-24T19:49:06.568Z,11.07
2019-01-24T19:55:01.552Z,11.13
2019-01-24T20:00:56.544Z,10.56
2019-01-24T20:06:51.557Z,11.13
2019-01-24T20:12:46.548Z,11.66
2019-01-24T20:18:41.579Z,12.99
2019-01-24T20:24:36.578Z,13.13
2019-01-24T20:30:31.570Z,12.45
2019-01-24T20:36:26.563Z,11.43
2019-01-24T20:42:21.586Z,12.68
2019-01-24T20:48:16.598Z,12.35
2019-01-24T20:54:11.638Z,12.85
2019-01-24T21:00:06.563Z,14.23
2019-01-24T21:06:01.572Z,13.76
2019-01-24T21:11:56.610Z,12.19
2019-01-24T21:17:51.611Z,12.26
2019-01-24T21:23:46.618Z,13.02
2019-01-24T21:29:41.585Z,11.47
2019-01-24T21:35:36.609Z,10.83
2019-01-24T21:41:31.680Z,11.29
2019-01-24T21:47:26.654Z,11.45
2019-01-24T21:53:21.617Z,13.4
2019-01-24T21:59:16.632Z,13.2
2019-01-24T22:05:11.608Z,12.47
2019-01-24T22:11:06.668Z,11.56
2019-01-24T22:17:01.610Z,12.37
2019-01-24T22:22:56.640Z,11.16
2019-01-24T22:28:51.643Z,9.98
2019-01-24T22:34:46.626Z,11.58
2019-01-24T22:40:41.639Z,10.07
2019-01-24T22:46:36.645Z,10.36
2019-01-24T22:52:31.654Z,9.53
2019-01-24T22:58:26.641Z,6.98
2019-01-24T23:04:21.706Z,7.18
2019-01-24T23:10:16.636Z,6.13
2019-01-24T23:16:11.669Z,6.3
2019-01-24T23:22:06.647Z,5.73
2019-01-24T23:28:01.671Z,5.76
2019-01-24T23:33:56.656Z,6.38
2019-01-24T23:39:53.435Z,6.38
2019-01-24T23:45:46.668Z,6.59
2019-01-24T23:51:41.676Z,6.57
2019-01-24T23:57:36.706Z,6.48
